TimeEST,TemperatureF,Dew PointF,Humidity,Sea Level PressureIn,VisibilityMPH,Wind Direction,Wind SpeedMPH,Gust SpeedMPH,PrecipitationIn,Events,Conditions,WindDirDegrees,DateUTC
12:15 AM,31.3,22.3,69,30.09,10.0,Calm,Calm,-,N/A,,Overcast,0,2013-12-07 05:15:00
12:35 AM,31.3,21.9,68,30.08,10.0,Calm,Calm,-,N/A,,Overcast,0,2013-12-07 05:35:00
12:55 AM,31.1,21.7,68,30.07,10.0,WNW,5.8,-,N/A,,Overcast,290,2013-12-07 05:55:00
1:15 AM,31.1,21.4,67,30.08,10.0,NW,4.6,-,N/A,,Overcast,310,2013-12-07 06:15:00
1:35 AM,30.7,21.2,68,30.08,10.0,NW,5.8,-,N/A,,Overcast,310,2013-12-07 06:35:00
1:55 AM,30.2,20.7,68,30.09,10.0,NW,5.8,-,N/A,,Overcast,310,2013-12-07 06:55:00
2:15 AM,30.2,19.6,65,30.09,10.0,NW,8.1,-,N/A,,Mostly Cloudy,310,2013-12-07 07:15:00
2:35 AM,29.7,18.7,64,30.09,10.0,NW,8.1,-,N/A,,Overcast,320,2013-12-07 07:35:00
2:55 AM,29.3,18.7,65,30.09,10.0,WNW,6.9,-,N/A,,Mostly Cloudy,290,2013-12-07 07:55:00
3:15 AM,29.3,18.0,63,30.10,10.0,WNW,5.8,-,N/A,,Overcast,300,2013-12-07 08:15:00
3:35 AM,28.9,17.6,63,30.10,10.0,NW,6.9,-,N/A,,Overcast,320,2013-12-07 08:35:00
3:55 AM,28.4,16.9,62,30.10,10.0,NW,6.9,16.1,N/A,,Overcast,310,2013-12-07 08:55:00
4:15 AM,28.2,15.8,60,30.11,10.0,WNW,9.2,-,N/A,,Overcast,300,2013-12-07 09:15:00
4:35 AM,28.0,15.6,60,30.13,10.0,NW,9.2,-,N/A,,Overcast,310,2013-12-07 09:35:00
4:55 AM,27.3,14.4,58,30.13,10.0,NW,8.1,-,N/A,,Overcast,310,2013-12-07 09:55:00
5:15 AM,27.1,14.4,59,30.14,10.0,NNW,5.8,-,N/A,,Overcast,330,2013-12-07 10:15:00
5:35 AM,27.0,13.6,57,30.14,10.0,NNW,6.9,-,N/A,,Overcast,330,2013-12-07 10:35:00
5:55 AM,26.8,14.2,59,30.15,10.0,NW,6.9,-,N/A,,Overcast,310,2013-12-07 10:55:00
6:15 AM,26.6,14.2,60,30.15,10.0,Calm,Calm,-,N/A,,Overcast,0,2013-12-07 11:15:00
6:35 AM,26.6,14.5,60,30.16,10.0,West,5.8,-,N/A,,Mostly Cloudy,270,2013-12-07 11:35:00
6:55 AM,26.2,13.6,59,30.16,10.0,NW,5.8,-,N/A,,Scattered Clouds,310,2013-12-07 11:55:00
7:15 AM,25.9,13.8,60,30.17,10.0,NW,4.6,-,N/A,,Mostly Cloudy,310,2013-12-07 12:15:00
7:35 AM,25.7,13.1,59,30.18,10.0,WNW,9.2,-,N/A,,Overcast,290,2013-12-07 12:35:00
7:55 AM,25.5,12.0,57,30.18,10.0,WNW,9.2,18.4,N/A,,Overcast,290,2013-12-07 12:55:00
8:15 AM,25.7,12.0,56,30.20,10.0,West,9.2,-,N/A,,Overcast,280,2013-12-07 13:15:00
8:35 AM,25.5,12.0,57,30.20,10.0,West,11.5,21.9,N/A,,Overcast,280,2013-12-07 13:35:00
8:55 AM,25.3,12.4,58,30.21,10.0,West,10.4,16.1,N/A,,Overcast,280,2013-12-07 13:55:00
9:15 AM,25.3,13.1,60,30.21,10.0,West,11.5,16.1,N/A,,Overcast,280,2013-12-07 14:15:00
9:35 AM,24.8,12.7,60,30.22,10.0,West,10.4,20.7,N/A,,Mostly Cloudy,280,2013-12-07 14:35:00
9:55 AM,25.3,12.7,59,30.23,10.0,West,11.5,17.3,N/A,,Mostly Cloudy,260,2013-12-07 14:55:00
10:15 AM,25.7,12.2,57,30.23,10.0,West,8.1,17.3,N/A,,Overcast,260,2013-12-07 15:15:00
10:35 AM,25.9,11.8,55,30.23,10.0,West,13.8,21.9,N/A,,Overcast,280,2013-12-07 15:35:00
10:55 AM,25.7,10.8,53,30.22,10.0,West,19.6,27.6,N/A,,Scattered Clouds,280,2013-12-07 15:55:00
11:15 AM,26.6,9.0,47,30.23,10.0,WNW,16.1,26.5,N/A,,Scattered Clouds,290,2013-12-07 16:15:00
11:35 AM,27.3,10.0,48,30.23,10.0,WNW,13.8,29.9,N/A,,Overcast,300,2013-12-07 16:35:00
11:55 AM,27.1,9.0,46,30.23,10.0,WNW,11.5,26.5,N/A,,Overcast,290,2013-12-07 16:55:00
12:15 PM,26.1,7.3,45,30.23,10.0,West,20.7,29.9,N/A,,Overcast,270,2013-12-07 17:15:00
12:35 PM,27.5,8.6,45,30.22,10.0,West,16.1,23.0,N/A,,Mostly Cloudy,270,2013-12-07 17:35:00
12:55 PM,26.4,8.1,46,30.23,10.0,WNW,15.0,27.6,N/A,,Scattered Clouds,290,2013-12-07 17:55:00
1:15 PM,26.6,7.7,45,30.23,10.0,WNW,13.8,23.0,N/A,,Mostly Cloudy,290,2013-12-07 18:15:00
1:35 PM,26.1,6.4,43,30.23,10.0,WNW,12.7,28.8,N/A,,Overcast,290,2013-12-07 18:35:00
1:55 PM,25.7,6.3,44,30.23,10.0,West,13.8,20.7,N/A,,Scattered Clouds,280,2013-12-07 18:55:00
2:15 PM,25.7,6.6,44,30.23,10.0,WNW,12.7,16.1,N/A,,Scattered Clouds,290,2013-12-07 19:15:00
2:35 PM,25.5,5.4,42,30.24,10.0,WNW,16.1,25.3,N/A,,Scattered Clouds,290,2013-12-07 19:35:00
2:55 PM,26.2,5.5,41,30.24,10.0,West,16.1,23.0,N/A,,Mostly Cloudy,280,2013-12-07 19:55:00
3:15 PM,26.1,6.1,43,30.25,10.0,WNW,8.1,19.6,N/A,,Mostly Cloudy,300,2013-12-07 20:15:00
3:35 PM,25.2,5.5,43,30.25,10.0,West,16.1,29.9,N/A,,Scattered Clouds,280,2013-12-07 20:35:00
3:55 PM,25.2,5.0,42,30.26,10.0,WNW,9.2,21.9,N/A,,Scattered Clouds,290,2013-12-07 20:55:00
4:15 PM,24.8,5.7,44,30.27,10.0,West,10.4,25.3,N/A,,Scattered Clouds,270,2013-12-07 21:15:00
4:35 PM,24.6,5.0,43,30.27,10.0,NNW,9.2,18.4,N/A,,Scattered Clouds,330,2013-12-07 21:35:00
4:55 PM,24.3,5.4,45,30.29,10.0,ENE,4.6,-,N/A,,Mostly Cloudy,70,2013-12-07 21:55:00
5:15 PM,23.9,5.2,45,30.30,10.0,North,5.8,-,N/A,,Overcast,10,2013-12-07 22:15:00
5:35 PM,23.0,5.9,48,30.31,10.0,NNE,5.8,-,N/A,,Overcast,30,2013-12-07 22:35:00
5:55 PM,22.8,5.4,47,30.31,10.0,NNW,5.8,-,N/A,,Mostly Cloudy,330,2013-12-07 22:55:00
6:15 PM,21.7,6.1,51,30.31,10.0,Calm,Calm,-,N/A,,Scattered Clouds,0,2013-12-07 23:15:00
6:35 PM,20.8,6.6,54,30.31,10.0,West,6.9,-,N/A,,Scattered Clouds,280,2013-12-07 23:35:00
6:55 PM,20.7,7.0,56,30.32,10.0,WNW,6.9,-,N/A,,Clear,290,2013-12-07 23:55:00
7:15 PM,20.3,7.3,57,30.33,10.0,WNW,3.5,-,N/A,,Clear,300,2013-12-08 00:15:00
7:35 PM,20.1,7.3,58,30.34,10.0,WNW,3.5,-,N/A,,Clear,300,2013-12-08 00:35:00
7:55 PM,20.1,7.5,58,30.34,10.0,WNW,3.5,-,N/A,,Scattered Clouds,300,2013-12-08 00:55:00
8:15 PM,20.3,7.2,57,30.35,10.0,WNW,5.8,-,N/A,,Clear,300,2013-12-08 01:15:00
8:35 PM,19.6,7.2,59,30.35,10.0,WNW,3.5,-,N/A,,Clear,300,2013-12-08 01:35:00
8:55 PM,19.2,7.2,59,30.35,10.0,Calm,Calm,-,N/A,,Clear,0,2013-12-08 01:55:00
9:15 PM,18.0,6.8,62,30.36,10.0,Calm,Calm,-,N/A,,Clear,0,2013-12-08 02:15:00
9:35 PM,19.0,6.8,59,30.37,10.0,SE,3.5,-,N/A,,Clear,140,2013-12-08 02:35:00
9:55 PM,20.3,6.6,56,30.37,10.0,Calm,Calm,-,N/A,,Mostly Cloudy,0,2013-12-08 02:55:00
10:15 PM,19.4,7.0,59,30.37,10.0,Calm,Calm,-,N/A,,Mostly Cloudy,0,2013-12-08 03:15:00
10:35 PM,19.8,7.5,59,30.39,10.0,West,3.5,-,N/A,,Overcast,280,2013-12-08 03:35:00
10:55 PM,20.3,7.5,58,30.39,10.0,WNW,4.6,-,N/A,,Mostly Cloudy,300,2013-12-08 03:55:00
11:15 PM,19.6,7.3,59,30.39,10.0,WNW,5.8,-,N/A,,Scattered Clouds,290,2013-12-08 04:15:00
11:35 PM,19.4,7.7,60,30.39,10.0,WNW,5.8,-,N/A,,Scattered Clouds,300,2013-12-08 04:35:00
11:55 PM,19.4,7.7,60,30.39,10.0,WNW,5.8,-,N/A,,Clear,290,2013-12-08 04:55:00